Time;durP1;ratioP1;P1;durP2;ratioP2;P2;SDS_P1;SDS_P2;PMS_P1;PMS_P2;Temp;Humidity;BMP_temperature;BMP_pressure;BME280_temperature;BME280_humidity;BME280_pressure;Samples;Min_cycle;Max_cycle;Signal;HPM_P1;HPM_P2
2023/03/26 00:00:27;;;;;;;0.60;0.43;;;;;;;10.20;88.88;64012.81;5013102;28;20601;-56
2023/03/26 00:02:52;;;;;;;0.70;0.50;;;;;;;10.21;88.79;64016.44;5012990;28;20358;-55
2023/03/26 00:05:17;;;;;;;0.40;0.40;;;;;;;10.19;88.71;64011.16;5013376;28;20260;-54
2023/03/26 00:07:43;;;;;;;1.97;0.27;;;;;;;10.13;88.89;64008.22;5013048;28;20179;-54
2023/03/26 00:10:09;;;;;;;0.20;0.20;;;;;;;10.09;89.84;64001.31;5013380;28;20296;-57
2023/03/26 00:12:34;;;;;;;0.53;0.50;;;;;;;10.12;89.79;64007.13;5013129;28;20214;-53
2023/03/26 00:14:59;;;;;;;1.30;0.23;;;;;;;10.04;89.91;64000.31;5013136;28;20225;-56
2023/03/26 00:17:25;;;;;;;0.43;0.43;;;;;;;9.98;90.99;63988.72;5012832;28;20189;-55
2023/03/26 00:19:52;;;;;;;0.30;0.30;;;;;;;9.99;91.31;63992.34;5012983;28;20277;-57
2023/03/26 00:22:18;;;;;;;0.63;0.43;;;;;;;9.99;91.47;63990.38;5012593;28;20357;-58
2023/03/26 00:24:46;;;;;;;0.40;0.40;;;;;;;10.00;90.42;63991.47;5013033;28;20301;-54
2023/03/26 00:27:11;;;;;;;0.90;0.37;;;;;;;9.96;90.71;63989.59;5012845;28;20661;-53
2023/03/26 00:29:38;;;;;;;1.20;0.37;;;;;;;10.00;90.74;63996.50;5012933;28;20229;-54
2023/03/26 00:32:04;;;;;;;0.20;0.20;;;;;;;9.91;90.65;63984.13;5012563;28;20241;-58
2023/03/26 00:34:33;;;;;;;0.37;0.37;;;;;;;9.95;91.01;63988.50;4994879;28;20226;-53
2023/03/26 00:37:01;;;;;;;0.40;0.37;;;;;;;9.97;90.71;63992.66;5012762;28;20262;-54
2023/03/26 00:39:28;;;;;;;0.40;0.40;;;;;;;9.92;90.60;63985.22;5012591;28;20578;-57
2023/03/26 00:41:53;;;;;;;0.30;0.30;;;;;;;9.96;90.05;63989.59;5012337;28;20186;-53
2023/03/26 00:44:19;;;;;;;0.20;0.20;;;;;;;9.96;90.39;63989.03;5012439;28;20226;-54
2023/03/26 00:46:45;;;;;;;0.30;0.30;;;;;;;9.91;90.49;63984.13;5012382;28;20597;-53
2023/03/26 00:49:13;;;;;;;0.30;0.30;;;;;;;9.85;90.40;63974.50;5012597;28;20250;-58
2023/03/26 00:51:39;;;;;;;0.40;0.40;;;;;;;9.83;90.09;63975.38;5012432;28;20195;-54
2023/03/26 00:54:07;;;;;;;0.40;0.37;;;;;;;9.88;89.53;63983.38;5012406;28;20215;-57
2023/03/26 00:56:33;;;;;;;0.30;0.30;;;;;;;9.96;88.69;63991.56;4994644;28;20221;-53
2023/03/26 00:58:59;;;;;;;0.27;0.27;;;;;;;10.00;88.86;63993.41;5012334;28;20214;-55
2023/03/26 01:01:26;;;;;;;0.93;0.37;;;;;;;9.97;87.58;63985.66;5012157;28;20305;-52
2023/03/26 01:03:57;;;;;;;0.43;0.43;;;;;;;9.97;86.69;63988.19;5012123;28;20361;-53
2023/03/26 01:06:31;;;;;;;0.20;0.20;;;;;;;9.97;86.58;63990.16;5012244;28;20187;-54
2023/03/26 01:09:03;;;;;;;0.57;0.20;;;;;;;9.92;86.32;63985.22;5012153;28;20218;-54
2023/03/26 01:11:34;;;;;;;0.37;0.37;;;;;;;9.98;85.67;63988.72;5012111;28;20614;-56
2023/03/26 01:14:08;;;;;;;0.30;0.30;;;;;;;10.08;84.51;64002.16;5012237;28;20276;-54
2023/03/26 01:16:50;;;;;;;0.30;0.30;;;;;;;10.09;83.80;64003.81;5011882;28;20187;-53
2023/03/26 01:19:32;;;;;;;0.20;0.20;;;;;;;10.09;83.77;64003.81;5012008;28;20280;-53
2023/03/26 01:21:59;;;;;;;0.80;0.50;;;;;;;10.12;83.44;64009.09;5011741;28;20194;-54
2023/03/26 01:24:25;;;;;;;0.30;0.30;;;;;;;10.10;83.97;64004.94;5011973;28;20281;-56
2023/03/26 01:27:09;;;;;;;0.20;0.20;;;;;;;10.08;84.46;64002.72;5011978;28;20191;-56
2023/03/26 01:29:54;;;;;;;0.43;0.43;;;;;;;9.97;85.19;63990.69;5011779;28;20221;-58
2023/03/26 01:32:37;;;;;;;0.20;0.20;;;;;;;9.93;85.73;63986.31;5011900;28;20290;-57
2023/03/26 01:35:18;;;;;;;0.40;0.40;;;;;;;9.91;86.32;63981.63;5011352;28;20631;-58
2023/03/26 01:38:21;;;;;;;0.20;0.20;;;;;;;9.79;87.14;63971.00;5011643;28;20195;-56
2023/03/26 01:41:24;;;;;;;0.50;0.50;;;;;;;9.83;87.27;63972.31;5011898;28;20563;-55
2023/03/26 01:43:57;;;;;;;0.30;0.30;;;;;;;9.79;87.63;63968.50;5011618;28;20210;-54
2023/03/26 01:46:24;;;;;;;0.50;0.50;;;;;;;9.79;88.23;63972.97;5011755;28;20202;-54
2023/03/26 01:48:50;;;;;;;0.43;0.43;;;;;;;9.83;88.77;63975.38;5011498;28;20641;-53
2023/03/26 01:51:34;;;;;;;1.00;0.43;;;;;;;9.74;89.63;63965.53;5011641;28;20191;-54
2023/03/26 01:54:04;;;;;;;0.40;0.40;;;;;;;9.76;90.71;63967.72;5009992;28;20269;-53
2023/03/26 01:56:58;;;;;;;1.87;0.90;;;;;;;9.77;90.13;63968.28;5011348;28;20233;-53
2023/03/26 01:59:36;;;;;;;1.27;0.90;;;;;;;9.75;90.69;63969.16;4945104;28;20234;-53
2023/03/26 02:02:12;;;;;;;0.50;0.50;;;;;;;9.77;90.86;63968.81;5011506;28;20213;-58
2023/03/26 02:05:00;;;;;;;0.77;0.63;;;;;;;9.81;90.93;63970.69;5011565;28;20249;-59
2023/03/26 02:07:43;;;;;;;2.00;0.60;;;;;;;9.75;91.64;63966.63;5011087;28;20202;-54
2023/03/26 02:10:12;;;;;;;0.53;0.53;;;;;;;9.76;91.76;63964.66;5011450;28;20244;-53
2023/03/26 02:12:38;;;;;;;0.80;0.80;;;;;;;9.75;92.27;63966.63;5011250;28;20697;-58
2023/03/26 02:15:04;;;;;;;0.90;0.60;;;;;;;9.64;93.36;63954.59;5011224;28;20207;-57
2023/03/26 02:17:31;;;;;;;1.40;0.50;;;;;;;9.67;92.74;63954.81;5011207;28;20548;-56
2023/03/26 02:19:57;;;;;;;0.60;0.53;;;;;;;9.66;93.24;63956.78;5011297;28;20302;-57
2023/03/26 02:22:29;;;;;;;0.50;0.50;;;;;;;9.61;94.25;63948.25;5010943;28;20277;-58
2023/03/26 02:24:55;;;;;;;1.00;0.73;;;;;;;9.65;94.53;63955.16;5011281;28;20253;-57
2023/03/26 02:27:20;;;;;;;2.23;0.70;;;;;;;9.57;94.69;63949.47;5011023;28;20187;-56
2023/03/26 02:29:46;;;;;;;0.67;0.67;;;;;;;9.51;95.47;63934.81;5011057;28;20222;-59
2023/03/26 02:32:12;;;;;;;0.77;0.60;;;;;;;9.48;95.46;63934.59;5009626;28;20191;-57
2023/03/26 02:34:41;;;;;;;0.93;0.57;;;;;;;9.40;95.44;63930.31;5010705;28;20221;-53
2023/03/26 02:37:08;;;;;;;1.10;0.87;;;;;;;9.43;95.54;63931.66;5010975;28;20205;-53
2023/03/26 02:39:33;;;;;;;0.83;0.80;;;;;;;9.46;95.22;63934.38;5010660;28;20257;-59
2023/03/26 02:41:59;;;;;;;0.90;0.90;;;;;;;9.37;95.58;63927.06;5010899;28;20206;-53
2023/03/26 02:44:26;;;;;;;1.00;0.90;;;;;;;9.44;95.12;63932.72;4993301;28;20227;-56
2023/03/26 02:46:51;;;;;;;0.70;0.70;;;;;;;9.37;95.21;63922.56;5011676;28;20209;-53
2023/03/26 02:49:17;;;;;;;2.07;0.90;;;;;;;9.37;95.51;63924.53;5014349;28;20207;-53
2023/03/26 02:51:42;;;;;;;1.20;0.80;;;;;;;9.40;95.69;63928.34;5014267;28;20199;-54
2023/03/26 02:54:07;;;;;;;0.63;0.63;;;;;;;9.37;95.89;63927.06;5014351;28;20686;-54
2023/03/26 02:56:33;;;;;;;1.10;1.10;;;;;;;9.36;96.28;63921.47;5014313;28;20193;-53
2023/03/26 02:58:58;;;;;;;1.53;0.97;;;;;;;9.30;97.15;63917.44;5014070;28;20215;-53
2023/03/26 03:01:24;;;;;;;1.47;0.80;;;;;;;9.25;97.38;63911.97;4996415;28;20225;-53
2023/03/26 03:03:49;;;;;;;2.70;1.07;;;;;;;9.16;98.47;63904.63;5013945;28;20623;-56
2023/03/26 03:06:17;;;;;;;0.90;0.90;;;;;;;9.05;98.84;63887.59;5014015;28;20681;-56
2023/03/26 03:08:47;;;;;;;0.70;0.70;;;;;;;9.09;98.42;63894.47;5013887;28;20310;-57
2023/03/26 03:11:20;;;;;;;1.17;1.00;;;;;;;9.08;97.50;63891.41;5013884;28;20198;-56
2023/03/26 03:13:46;;;;;;;0.60;0.60;;;;;;;9.14;96.90;63899.94;4996304;28;20661;-53
2023/03/26 03:16:12;;;;;;;1.17;0.90;;;;;;;9.18;96.79;63901.78;5013866;28;20196;-55
2023/03/26 03:18:37;;;;;;;0.83;0.83;;;;;;;9.16;97.03;63902.13;5013700;28;20669;-58
2023/03/26 03:21:04;;;;;;;7.07;0.90;;;;;;;9.13;96.70;63898.84;5013739;28;20210;-54
2023/03/26 03:23:30;;;;;;;1.27;1.17;;;;;;;9.07;97.51;63892.28;5013405;28;20237;-55
2023/03/26 03:25:56;;;;;;;0.93;0.93;;;;;;;9.02;97.42;63889.34;5013811;28;20218;-57
2023/03/26 03:28:23;;;;;;;1.43;1.00;;;;;;;9.02;97.61;63889.34;5013542;28;20186;-55
2023/03/26 03:30:52;;;;;;;1.17;0.90;;;;;;;9.01;97.59;63885.72;5013578;28;20218;-52
2023/03/26 03:33:21;;;;;;;1.30;1.20;;;;;;;8.95;97.84;63874.13;5013691;28;20226;-59
2023/03/26 03:35:48;;;;;;;1.40;1.30;;;;;;;8.94;97.48;63878.06;5013613;28;20215;-52
2023/03/26 03:38:15;;;;;;;4.93;1.80;;;;;;;8.89;97.97;63872.59;5013428;28;20190;-52
2023/03/26 03:40:40;;;;;;;2.07;1.63;;;;;;;8.89;97.69;63872.59;5013577;28;20222;-53
2023/03/26 03:43:06;;;;;;;1.53;1.43;;;;;;;8.85;98.12;63866.28;5013271;28;20217;-53
2023/03/26 03:45:31;;;;;;;1.77;1.30;;;;;;;8.76;98.58;63858.97;5013386;28;20573;-54
2023/03/26 03:47:57;;;;;;;1.50;1.40;;;;;;;8.80;98.71;63862.78;5013354;28;20182;-54
2023/03/26 03:50:23;;;;;;;1.73;1.63;;;;;;;8.74;98.83;63859.28;5013705;28;20223;-53
2023/03/26 03:52:49;;;;;;;1.50;1.40;;;;;;;8.67;99.35;63848.56;5013263;28;20656;-53
2023/03/26 03:55:15;;;;;;;2.30;1.83;;;;;;;8.70;99.73;63849.34;5013491;28;20247;-56
2023/03/26 03:57:40;;;;;;;2.00;1.60;;;;;;;8.56;99.85;63836.56;5012594;28;20225;-55
2023/03/26 04:00:07;;;;;;;2.10;1.70;;;;;;;8.59;99.77;63839.84;5013279;28;20218;-57
2023/03/26 04:02:33;;;;;;;1.83;1.70;;;;;;;8.58;100.00;63839.31;5013018;28;20215;-53
2023/03/26 04:05:00;;;;;;;2.73;1.63;;;;;;;8.65;100.00;63846.94;5013258;28;20230;-56
2023/03/26 04:07:29;;;;;;;2.00;1.90;;;;;;;8.59;100.00;63839.84;5013248;28;20743;-55
2023/03/26 04:09:54;;;;;;;2.70;2.03;;;;;;;8.60;100.00;63840.94;5012963;28;20206;-55
2023/03/26 04:12:20;;;;;;;1.93;1.73;;;;;;;8.55;100.00;63835.47;5012972;28;20191;-55
2023/03/26 04:14:45;;;;;;;2.30;2.13;;;;;;;8.62;100.00;63843.66;5012941;28;20215;-55
2023/03/26 04:17:12;;;;;;;2.07;1.83;;;;;;;8.65;100.00;63846.38;5012866;28;20273;-58
2023/03/26 04:19:39;;;;;;;2.20;1.90;;;;;;;8.65;100.00;63848.91;5012680;28;20211;-53
2023/03/26 04:22:05;;;;;;;3.40;2.00;;;;;;;8.63;100.00;63844.19;5012879;28;20260;-57
2023/03/26 04:24:39;;;;;;;4.17;2.53;;;;;;;8.64;100.00;63843.34;4994994;28;20226;-56
2023/03/26 04:27:08;;;;;;;2.30;1.93;;;;;;;8.68;100.00;63849.66;5012993;28;20260;-53
2023/03/26 04:29:41;;;;;;;2.57;1.80;;;;;;;8.72;100.00;63854.59;4995030;28;20368;-55
2023/03/26 04:32:11;;;;;;;2.27;1.93;;;;;;;8.70;100.00;63849.34;5012827;28;20193;-58
2023/03/26 04:34:44;;;;;;;2.70;2.27;;;;;;;8.70;100.00;63849.91;5012864;28;20222;-54
2023/03/26 04:37:19;;;;;;;3.53;2.33;;;;;;;8.67;100.00;63848.56;5012522;28;20186;-53
2023/03/26 04:39:44;;;;;;;3.60;2.50;;;;;;;8.76;99.74;63858.41;5012949;28;20214;-58
2023/03/26 04:42:10;;;;;;;2.83;2.53;;;;;;;8.71;100.00;63852.94;5012370;28;20198;-57
2023/03/26 04:44:35;;;;;;;2.60;2.40;;;;;;;8.71;100.00;63852.94;4994806;28;20218;-54
2023/03/26 04:47:01;;;;;;;4.73;3.60;;;;;;;8.73;100.00;63852.63;5012655;28;20205;-55
2023/03/26 04:49:26;;;;;;;4.20;2.73;;;;;;;8.67;99.66;63849.13;5012380;28;20214;-53
2023/03/26 04:51:52;;;;;;;2.53;2.33;;;;;;;8.70;99.80;63851.84;5012525;28;20194;-54
2023/03/26 04:54:21;;;;;;;5.13;2.93;;;;;;;8.67;98.65;63849.13;5011902;28;20297;-53
2023/03/26 04:56:58;;;;;;;3.10;2.80;;;;;;;8.77;98.12;63859.50;5012244;28;20190;-56
2023/03/26 04:59:33;;;;;;;2.90;2.60;;;;;;;8.80;98.48;63857.75;5012156;28;20273;-54
2023/03/26 05:02:01;;;;;;;4.23;3.23;;;;;;;8.78;97.58;63858.63;5012195;28;20281;-53
2023/03/26 05:04:32;;;;;;;3.70;3.20;;;;;;;8.79;96.16;63862.22;5012294;28;20301;-54
2023/03/26 05:06:58;;;;;;;3.23;2.70;;;;;;;8.89;95.84;63870.66;5012301;28;20190;-55
2023/03/26 05:09:25;;;;;;;4.10;3.00;;;;;;;8.97;95.35;63884.41;5011196;28;20586;-56
2023/03/26 05:11:51;;;;;;;3.53;2.93;;;;;;;8.93;94.06;63876.97;5012005;28;20222;-56
2023/03/26 05:14:17;;;;;;;3.13;2.83;;;;;;;8.97;93.75;63878.84;5012184;28;20234;-54
2023/03/26 05:16:43;;;;;;;3.80;3.40;;;;;;;8.88;92.88;63871.53;5012053;28;20218;-54
2023/03/26 05:19:09;;;;;;;14.47;3.80;;;;;;;8.94;92.87;63878.06;5012306;28;20221;-53
2023/03/26 05:21:35;;;;;;;4.00;3.40;;;;;;;8.84;91.33;63867.72;5012065;28;20191;-55
2023/03/26 05:24:01;;;;;;;5.13;3.97;;;;;;;8.89;90.81;63875.13;4994297;28;20309;-59
2023/03/26 05:26:28;;;;;;;4.80;4.30;;;;;;;8.98;91.35;63879.94;5011959;28;20314;-58
2023/03/26 05:28:54;;;;;;;4.27;3.50;;;;;;;8.95;91.65;63879.16;5011986;28;20249;-55
2023/03/26 05:31:20;;;;;;;4.80;4.20;;;;;;;8.96;91.74;63880.81;4978045;28;20549;-53
2023/03/26 05:33:46;;;;;;;4.50;3.30;;;;;;;8.96;92.84;63880.25;5011747;28;20190;-52
2023/03/26 05:36:12;;;;;;;4.40;3.60;;;;;;;8.94;93.66;63878.06;5011643;28;20245;-56
2023/03/26 05:38:38;;;;;;;4.77;4.23;;;;;;;9.13;92.49;63898.84;5011368;28;20669;-57
2023/03/26 05:41:06;;;;;;;4.40;3.80;;;;;;;9.06;93.00;63891.19;5011876;28;20683;-53
2023/03/26 05:43:33;;;;;;;4.90;4.40;;;;;;;8.97;94.04;63881.91;4993784;28;20681;-54
2023/03/26 05:45:59;;;;;;;4.80;4.23;;;;;;;9.04;93.52;63894.03;5011868;28;20198;-57
2023/03/26 05:48:25;;;;;;;4.87;4.37;;;;;;;9.01;94.30;63886.28;5011700;28;20183;-56
2023/03/26 05:50:53;;;;;;;5.83;4.83;;;;;;;9.04;94.43;63889.56;5011585;28;20214;-57
2023/03/26 05:53:19;;;;;;;5.63;4.83;;;;;;;9.15;93.36;63901.56;4993755;28;20189;-54
2023/03/26 05:55:49;;;;;;;6.37;4.20;;;;;;;9.14;94.03;63900.50;5011268;28;20213;-57
2023/03/26 05:58:15;;;;;;;7.63;4.23;;;;;;;9.22;93.87;63908.69;5011179;28;20268;-55
2023/03/26 06:00:41;;;;;;;7.67;5.20;;;;;;;9.17;93.62;63905.75;5011556;28;20218;-58
2023/03/26 06:03:11;;;;;;;9.40;5.93;;;;;;;9.04;94.02;63886.50;5011385;28;20237;-58
2023/03/26 06:05:38;;;;;;;6.20;5.10;;;;;;;9.19;93.62;63905.41;5011745;28;20234;-55
2023/03/26 06:08:04;;;;;;;6.37;5.10;;;;;;;9.41;91.38;63926.94;5011357;28;20581;-57
2023/03/26 06:10:30;;;;;;;6.43;5.63;;;;;;;9.43;90.87;63928.59;5011030;28;20215;-53
2023/03/26 06:12:56;;;;;;;5.17;4.43;;;;;;;9.50;88.88;63938.75;5011396;28;20190;-54
2023/03/26 06:15:22;;;;;;;5.30;4.43;;;;;;;9.45;87.57;63933.84;5011390;28;20249;-53
2023/03/26 06:17:48;;;;;;;5.90;4.43;;;;;;;9.52;86.37;63938.41;5011378;28;20218;-53
2023/03/26 06:20:14;;;;;;;5.07;4.57;;;;;;;9.64;85.61;63952.09;5011016;28;20735;-54
2023/03/26 06:22:39;;;;;;;5.53;4.40;;;;;;;9.49;85.31;63935.69;5010947;28;20215;-52
2023/03/26 06:25:06;;;;;;;4.67;4.13;;;;;;;9.50;84.76;63936.22;5011696;28;20265;-53
2023/03/26 06:27:31;;;;;;;5.23;4.20;;;;;;;9.54;85.13;63943.66;5010960;28;20190;-54
2023/03/26 06:29:56;;;;;;;5.93;4.43;;;;;;;9.54;84.05;63940.59;5010907;28;20218;-54
2023/03/26 06:32:22;;;;;;;4.77;4.37;;;;;;;9.62;84.14;63952.41;5010849;28;20202;-53
2023/03/26 06:34:47;;;;;;;5.33;4.53;;;;;;;9.65;83.66;63955.16;5011172;28;20215;-56
2023/03/26 06:37:13;;;;;;;6.53;4.80;;;;;;;9.81;83.04;63972.66;5010858;28;20573;-59
2023/03/26 06:39:38;;;;;;;7.30;4.53;;;;;;;9.89;82.92;63981.41;5011100;28;20222;-53
2023/03/26 06:42:04;;;;;;;6.63;5.40;;;;;;;10.11;81.23;64008.00;5010968;28;20649;-55
2023/03/26 06:44:29;;;;;;;5.27;4.70;;;;;;;10.10;80.41;64004.94;5010681;28;20219;-58
2023/03/26 06:46:54;;;;;;;4.80;4.30;;;;;;;10.02;79.79;63993.09;5011000;28;20179;-54
2023/03/26 06:49:20;;;;;;;6.10;5.10;;;;;;;10.01;81.23;63995.06;5011093;28;20223;-58
2023/03/26 06:51:46;;;;;;;5.80;4.57;;;;;;;10.16;79.16;64012.94;5010670;28;20191;-57
2023/03/26 06:54:12;;;;;;;6.30;4.70;;;;;;;10.14;77.06;64006.25;5010799;28;20218;-53
2023/03/26 06:56:37;;;;;;;4.83;4.33;;;;;;;10.07;77.56;63998.56;5010729;28;20191;-57
2023/03/26 06:59:03;;;;;;;4.97;4.40;;;;;;;10.33;76.15;64029.00;5010954;28;20214;-56
2023/03/26 07:01:28;;;;;;;6.47;4.60;;;;;;;10.42;75.65;64036.34;5010747;28;20190;-57
2023/03/26 07:03:54;;;;;;;5.17;4.67;;;;;;;10.30;75.78;64026.28;5010490;28;20223;-59
2023/03/26 07:06:19;;;;;;;5.50;4.40;;;;;;;10.45;75.94;64042.13;5010554;28;20229;-57
2023/03/26 07:08:45;;;;;;;5.53;4.83;;;;;;;10.59;76.06;64057.47;5010844;28;20199;-58
2023/03/26 07:11:11;;;;;;;6.70;5.00;;;;;;;10.68;75.69;64067.88;5010785;28;20587;-56
2023/03/26 07:13:37;;;;;;;5.27;4.27;;;;;;;10.51;73.36;64046.75;5010416;28;20189;-56
2023/03/26 07:16:03;;;;;;;5.00;4.30;;;;;;;10.85;72.97;64085.91;5010675;28;20199;-54
2023/03/26 07:18:28;;;;;;;4.83;4.20;;;;;;;10.86;72.28;64087.59;5010626;28;20190;-54
2023/03/26 07:20:54;;;;;;;5.33;4.70;;;;;;;10.66;74.21;64062.63;5010505;28;20257;-56
2023/03/26 07:23:20;;;;;;;5.83;4.70;;;;;;;10.66;73.86;64065.13;5010217;28;20237;-55
2023/03/26 07:25:48;;;;;;;9.57;4.73;;;;;;;10.81;73.24;64081.53;5010320;28;20215;-56
2023/03/26 07:28:25;;;;;;;6.93;4.70;;;;;;;10.71;71.95;64068.06;5009676;28;20209;-56
2023/03/26 07:31:00;;;;;;;7.07;4.77;;;;;;;10.89;70.99;64087.78;4992791;28;20704;-54
2023/03/26 07:33:54;;;;;;;5.47;4.63;;;;;;;11.04;68.97;64104.22;5011854;28;20271;-59
2023/03/26 07:36:23;;;;;;;4.70;4.03;;;;;;;11.27;68.22;64128.88;4983822;28;20596;-53
2023/03/26 07:38:54;;;;;;;6.23;4.30;;;;;;;11.14;69.19;64117.69;5013533;28;20736;-59
2023/03/26 07:41:25;;;;;;;4.87;4.40;;;;;;;11.15;67.59;64118.25;5013523;28;20190;-58
2023/03/26 07:44:03;;;;;;;6.40;4.77;;;;;;;11.07;68.28;64110.00;5013505;28;20288;-58
2023/03/26 07:46:32;;;;;;;5.23;4.40;;;;;;;11.12;68.20;64115.50;5013762;28;20267;-56
2023/03/26 07:49:00;;;;;;;5.17;4.63;;;;;;;11.19;68.32;64125.69;5013391;28;20211;-58
2023/03/26 07:51:27;;;;;;;4.43;3.80;;;;;;;11.39;66.71;64144.53;5013687;28;20190;-57
2023/03/26 07:53:53;;;;;;;4.50;4.10;;;;;;;11.34;66.86;64136.53;5013443;28;20309;-54
2023/03/26 07:56:20;;;;;;;6.37;4.37;;;;;;;11.40;67.77;64145.63;5013389;28;20266;-55
2023/03/26 07:59:14;;;;;;;8.63;4.73;;;;;;;11.47;67.43;64151.31;5013101;28;20353;-57
2023/03/26 08:02:21;;;;;;;4.37;3.80;;;;;;;11.40;65.90;64143.66;4995662;28;20197;-57
2023/03/26 08:04:52;;;;;;;4.97;4.03;;;;;;;11.59;66.26;64167.00;4992734;28;20231;-59
2023/03/26 08:07:33;;;;;;;5.50;3.70;;;;;;;11.68;65.28;64174.34;5013106;28;20253;-59
2023/03/26 08:10:11;;;;;;;6.53;3.90;;;;;;;11.58;64.01;64165.34;5013411;28;20269;-54
2023/03/26 08:12:59;;;;;;;3.93;3.57;;;;;;;12.13;64.53;64220.03;5013313;28;20190;-57
2023/03/26 08:15:37;;;;;;;7.43;4.03;;;;;;;12.14;61.91;64223.66;5013101;28;20229;-57
2023/03/26 08:18:34;;;;;;;3.57;3.27;;;;;;;12.40;61.13;64255.25;5012946;28;20214;-59
2023/03/26 08:21:06;;;;;;;4.40;3.63;;;;;;;12.43;59.94;64253.47;5013165;28;20205;-55
2023/03/26 08:23:49;;;;;;;4.20;3.80;;;;;;;12.88;59.65;64307.34;5012731;28;20689;-55
2023/03/26 08:26:42;;;;;;;6.50;3.80;;;;;;;13.34;58.23;64355.31;4995190;28;20338;-55
2023/03/26 08:29:22;;;;;;;3.77;3.47;;;;;;;13.14;57.46;64335.91;5013172;28;20218;-55
2023/03/26 08:31:49;;;;;;;4.00;3.47;;;;;;;13.27;54.74;64345.09;5012942;28;20221;-52
2023/03/26 08:34:15;;;;;;;5.33;3.37;;;;;;;13.20;55.33;64339.41;5024586;22;20229;-57
2023/03/26 08:36:41;;;;;;;3.20;2.90;;;;;;;12.88;51.93;64306.81;5032441;28;20213;-55
2023/03/26 08:39:07;;;;;;;2.53;2.33;;;;;;;12.86;52.30;64302.63;5032382;28;20217;-56
2023/03/26 08:41:39;;;;;;;2.87;2.20;;;;;;;13.05;50.70;64326.00;5032341;28;20182;-58
2023/03/26 08:44:13;;;;;;;5.90;3.67;;;;;;;12.98;52.99;64318.31;5032174;28;20598;-53
2023/03/26 08:47:16;;;;;;;5.17;2.43;;;;;;;13.33;51.42;64353.69;5014329;28;20181;-53
2023/03/26 08:50:07;;;;;;;4.63;3.00;;;;;;;13.53;49.56;64378.16;5032380;28;20218;-54
2023/03/26 08:52:56;;;;;;;3.33;2.53;;;;;;;13.84;49.15;64409.09;5032090;28;20190;-55
2023/03/26 08:55:31;;;;;;;2.90;2.47;;;;;;;14.66;49.31;64501.75;5032285;28;20260;-54
2023/03/26 08:58:23;;;;;;;3.42;2.50;;;;;;;15.15;46.65;64555.63;5031795;28;20189;-54
2023/03/26 09:01:00;;;;;;;11.27;6.05;;;;;;;14.46;48.95;64477.25;5031993;28;20209;-55
2023/03/26 09:03:59;;;;;;;5.00;3.53;;;;;;;15.15;47.14;64552.53;5031892;28;20208;-54
2023/03/26 09:07:05;;;;;;;3.72;3.03;;;;;;;16.31;46.86;64677.09;5032560;28;20197;-55
2023/03/26 09:09:57;;;;;;;3.85;2.70;;;;;;;15.07;47.01;64544.28;5014189;28;20221;-55
2023/03/26 09:12:48;;;;;;;2.53;2.33;;;;;;;14.74;47.42;64510.00;5031899;28;20217;-58
2023/03/26 09:15:32;;;;;;;3.90;2.45;;;;;;;14.75;46.68;64506.56;5031920;28;20307;-58
2023/03/26 09:18:22;;;;;;;1.88;1.67;;;;;;;13.91;44.07;64414.28;5031818;28;20788;-59
2023/03/26 09:21:35;;;;;;;2.93;2.30;;;;;;;14.20;45.43;64446.13;5031900;28;20224;-58
2023/03/26 09:24:01;;;;;;;2.35;1.95;;;;;;;15.25;45.13;64560.97;4960637;28;20239;-59
2023/03/26 09:26:41;;;;;;;2.40;1.98;;;;;;;16.04;41.85;64646.81;5031836;28;20194;-58
2023/03/26 09:29:31;;;;;;;1.80;1.70;;;;;;;15.87;41.15;64631.19;5031653;28;20249;-59
2023/03/26 09:32:34;;;;;;;3.28;1.83;;;;;;;15.87;42.02;64629.22;5031490;28;20690;-57
2023/03/26 09:35:21;;;;;;;3.42;1.95;;;;;;;15.46;42.50;64583.56;5031866;28;20209;-54
2023/03/26 09:37:59;;;;;;;2.72;1.60;;;;;;;15.47;41.81;64587.19;5031350;28;20190;-55
2023/03/26 09:40:36;;;;;;;1.73;1.63;;;;;;;15.47;40.49;64590.28;5031240;28;20569;-57
2023/03/26 09:43:26;;;;;;;2.03;1.83;;;;;;;15.88;41.24;64635.38;5013618;28;20221;-58
2023/03/26 09:46:16;;;;;;;2.25;1.85;;;;;;;15.99;40.36;64646.94;5013612;28;20699;-55
2023/03/26 09:48:57;;;;;;;2.58;1.60;;;;;;;16.48;39.34;64695.78;5031270;28;20573;-55
2023/03/26 09:51:41;;;;;;;2.15;1.63;;;;;;;16.44;39.58;64691.38;5031265;28;20753;-57
2023/03/26 09:54:12;;;;;;;1.95;1.50;;;;;;;16.27;40.93;64677.75;5031393;28;20220;-56
2023/03/26 09:56:57;;;;;;;5.95;1.40;;;;;;;16.07;40.63;64653.22;5029350;28;20194;-57
2023/03/26 09:59:47;;;;;;;2.85;2.20;;;;;;;16.50;40.36;64697.47;5031191;28;20648;-57
2023/03/26 10:02:15;;;;;;;2.00;1.73;;;;;;;16.33;41.12;64681.81;5031066;28;20182;-55
2023/03/26 10:04:59;;;;;;;1.60;1.50;;;;;;;16.58;40.39;64709.34;5030874;28;20309;-58
2023/03/26 10:08:19;;;;;;;3.70;1.30;;;;;;;16.08;39.73;64654.31;5030951;28;20677;-54
2023/03/26 10:10:56;;;;;;;2.35;1.40;;;;;;;16.37;40.06;64686.22;4982775;28;20234;-58
2023/03/26 10:13:30;;;;;;;3.03;1.50;;;;;;;16.26;39.38;64673.56;5031111;28;20208;-56
2023/03/26 10:16:14;;;;;;;1.33;1.23;;;;;;;15.91;39.10;64633.63;5031085;28;20217;-55
2023/03/26 10:18:54;;;;;;;1.58;1.48;;;;;;;16.44;38.05;64693.38;5030683;28;20217;-54
2023/03/26 10:21:33;;;;;;;1.27;1.17;;;;;;;17.37;37.92;64792.75;5030909;28;20201;-57
2023/03/26 10:24:23;;;;;;;1.45;1.35;;;;;;;16.79;37.23;64729.94;5030881;28;20229;-54
2023/03/26 10:27:19;;;;;;;1.90;1.08;;;;;;;16.57;37.90;64708.28;5030743;28;20182;-55
2023/03/26 10:30:16;;;;;;;1.20;1.08;;;;;;;17.92;38.18;64857.91;5030506;28;20217;-56
2023/03/26 10:32:51;;;;;;;4.45;1.20;;;;;;;17.51;36.01;64808.19;5030734;28;20190;-58
2023/03/26 10:35:23;;;;;;;2.55;1.45;;;;;;;17.03;36.86;64755.28;5031167;28;20239;-59
2023/03/26 10:38:07;;;;;;;1.40;1.30;;;;;;;16.97;36.91;64751.22;5030427;28;20194;-58
2023/03/26 10:41:01;;;;;;;1.30;1.20;;;;;;;17.63;35.09;64823.41;5030941;28;20202;-58
2023/03/26 10:43:41;;;;;;;0.90;0.85;;;;;;;17.52;34.22;64812.38;5012720;28;20217;-56
2023/03/26 10:46:25;;;;;;;0.95;0.85;;;;;;;17.49;34.59;64806.00;5030706;28;20213;-54
2023/03/26 10:48:54;;;;;;;2.10;1.20;;;;;;;17.15;34.61;64771.06;5030777;28;20316;-58
2023/03/26 10:51:31;;;;;;;1.35;1.25;;;;;;;18.12;33.65;64874.88;5030586;28;20684;-58
2023/03/26 10:54:13;;;;;;;1.23;1.00;;;;;;;17.32;33.96;64787.22;5030300;28;20699;-55
2023/03/26 10:56:41;;;;;;;0.70;0.70;;;;;;;18.19;33.59;64883.16;5030686;28;20185;-57
2023/03/26 10:59:12;;;;;;;1.95;0.90;;;;;;;18.58;33.32;64928.19;5012632;28;20260;-54
2023/03/26 11:01:49;;;;;;;0.90;0.90;;;;;;;18.67;32.67;64935.00;5030386;28;20648;-54
2023/03/26 11:04:38;;;;;;;1.10;1.00;;;;;;;18.70;33.34;64938.88;5030459;28;20639;-54
2023/03/26 11:07:22;;;;;;;1.60;1.00;;;;;;;19.22;34.06;65001.38;5012670;28;20197;-54
2023/03/26 11:09:47;;;;;;;1.65;1.10;;;;;;;18.74;32.31;64943.28;5034020;28;20198;-58
2023/03/26 11:12:21;;;;;;;1.10;1.00;;;;;;;19.00;31.03;64971.41;5033626;28;20492;-55
2023/03/26 11:15:15;;;;;;;1.67;1.00;;;;;;;18.62;31.72;64935.16;5015930;28;20237;-58
2023/03/26 11:18:01;;;;;;;1.08;0.80;;;;;;;19.09;30.96;64981.91;5033655;28;20225;-56
2023/03/26 11:20:51;;;;;;;1.08;0.75;;;;;;;18.21;30.78;64884.81;5033876;28;20232;-56
2023/03/26 11:23:39;;;;;;;1.00;0.80;;;;;;;18.15;30.68;64878.19;5033590;28;20214;-56
2023/03/26 11:26:15;;;;;;;1.13;0.90;;;;;;;18.52;30.46;64921.00;5033430;28;20197;-57
2023/03/26 11:29:04;;;;;;;1.08;0.85;;;;;;;18.13;30.70;64876.53;5033512;28;20623;-59
2023/03/26 11:31:32;;;;;;;1.63;0.60;;;;;;;17.74;30.43;64833.53;5033733;28;20243;-55
2023/03/26 11:34:04;;;;;;;0.63;0.63;;;;;;;18.28;30.74;64893.06;5033355;28;20218;-53
2023/03/26 11:36:35;;;;;;;0.70;0.70;;;;;;;18.05;30.27;64870.25;5033731;28;20661;-59
2023/03/26 11:39:07;;;;;;;1.45;0.63;;;;;;;19.47;30.68;65025.88;5033181;28;20210;-54
2023/03/26 11:41:33;;;;;;;1.63;0.60;;;;;;;18.59;29.31;64926.72;5033346;28;20186;-59
2023/03/26 11:44:10;;;;;;;0.73;0.60;;;;;;;18.80;28.98;64952.47;5033201;28;20298;-58
2023/03/26 11:46:41;;;;;;;0.70;0.60;;;;;;;17.95;30.36;64856.69;5033196;28;20790;-54
2023/03/26 11:49:10;;;;;;;1.08;0.80;;;;;;;18.11;29.85;64873.78;5032781;28;20267;-55
2023/03/26 11:51:41;;;;;;;3.35;0.70;;;;;;;18.28;29.74;64895.63;5033138;28;20653;-54
2023/03/26 11:54:11;;;;;;;2.17;0.80;;;;;;;19.14;28.08;64989.97;5033126;28;20683;-57
2023/03/26 11:56:43;;;;;;;0.80;0.80;;;;;;;19.89;28.73;65069.16;5033060;28;20217;-57
2023/03/26 11:59:19;;;;;;;2.38;0.65;;;;;;;19.52;27.54;65026.28;5032826;28;20264;-54
2023/03/26 12:02:11;;;;;;;2.10;0.95;;;;;;;19.57;26.77;65033.81;5033002;28;20186;-54